Time;durP1;ratioP1;P1;durP2;ratioP2;P2;SDS_P1;SDS_P2;PMS_P1;PMS_P2;Temp;Humidity;BMP_temperature;BMP_pressure;BME280_temperature;BME280_humidity;BME280_pressure;Samples;Min_cycle;Max_cycle;Signal;HPM_P1;HPM_P2
2021/07/17 00:01:45;;;;;;;28.10;10.55;;;;;;;16.15;100.00;102537.13;3636740;22;20037;-62
2021/07/17 00:04:13;;;;;;;34.75;11.23;;;;;;;16.16;100.00;102539.72;3602098;39;20040;-62
2021/07/17 00:06:40;;;;;;;30.95;9.90;;;;;;;16.24;100.00;102547.25;3600657;39;20047;-62
2021/07/17 00:09:07;;;;;;;29.98;10.90;;;;;;;16.23;100.00;102545.50;3599823;39;20035;-62
2021/07/17 00:11:34;;;;;;;28.52;10.55;;;;;;;16.23;100.00;102551.78;3602710;39;20047;-62
2021/07/17 00:14:00;;;;;;;29.58;10.68;;;;;;;16.24;100.00;102542.66;3604610;39;20304;-61
2021/07/17 00:16:27;;;;;;;23.83;9.93;;;;;;;16.33;100.00;102542.84;3600130;39;20380;-62
2021/07/17 00:18:55;;;;;;;29.65;10.10;;;;;;;16.30;100.00;102541.28;3603172;39;20298;-62
2021/07/17 00:21:23;;;;;;;32.80;9.98;;;;;;;16.23;100.00;102553.66;3604238;39;20038;-62
2021/07/17 00:23:50;;;;;;;20.45;9.68;;;;;;;16.25;100.00;102557.09;3602430;39;20297;-63
2021/07/17 00:26:16;;;;;;;34.42;10.80;;;;;;;16.31;100.00;102553.84;3604964;39;20072;-61
2021/07/17 00:28:43;;;;;;;29.65;9.95;;;;;;;16.32;100.00;102558.28;3602539;39;20038;-62
2021/07/17 00:31:09;;;;;;;31.98;11.15;;;;;;;16.25;100.00;102548.94;3598364;39;20039;-62
2021/07/17 00:33:37;;;;;;;32.80;9.85;;;;;;;16.34;100.00;102553.59;3602126;39;20049;-62
2021/07/17 00:36:03;;;;;;;33.28;10.18;;;;;;;16.29;100.00;102553.13;3602199;39;20086;-62
2021/07/17 00:38:31;;;;;;;33.45;9.88;;;;;;;16.36;100.00;102556.19;3604603;39;20390;-62
2021/07/17 00:40:58;;;;;;;25.50;9.15;;;;;;;16.28;100.00;102555.00;3605613;39;20109;-62
2021/07/17 00:43:24;;;;;;;33.65;10.25;;;;;;;16.25;100.00;102543.50;3603330;39;20045;-62
2021/07/17 00:45:51;;;;;;;34.15;10.65;;;;;;;16.14;100.00;102546.31;3603798;39;20046;-62
2021/07/17 00:48:17;;;;;;;30.80;9.82;;;;;;;16.08;100.00;102543.09;3602489;39;20072;-62
2021/07/17 00:50:44;;;;;;;29.05;9.60;;;;;;;16.03;100.00;102542.66;3604727;39;20036;-62
2021/07/17 00:53:10;;;;;;;31.45;9.70;;;;;;;16.00;100.00;102545.59;3602289;39;20040;-61
2021/07/17 00:55:41;;;;;;;36.88;10.60;;;;;;;15.94;100.00;102546.13;3601387;39;20040;-61
2021/07/17 00:58:11;;;;;;;34.47;10.55;;;;;;;15.86;100.00;102548.66;3602295;39;20037;-61
2021/07/17 01:00:38;;;;;;;46.95;10.80;;;;;;;15.79;100.00;102542.84;3603598;39;20112;-61
2021/07/17 01:03:07;;;;;;;32.95;10.00;;;;;;;15.75;100.00;102552.22;3601221;39;20055;-62
2021/07/17 01:05:34;;;;;;;36.20;10.88;;;;;;;15.70;100.00;102557.19;3599531;39;20058;-62
2021/07/17 01:08:01;;;;;;;29.90;9.43;;;;;;;15.69;100.00;102548.16;3599928;39;20394;-61
2021/07/17 01:10:28;;;;;;;34.75;10.88;;;;;;;15.65;100.00;102546.72;3601948;39;20044;-61
2021/07/17 01:12:56;;;;;;;37.35;11.00;;;;;;;15.65;100.00;102544.00;3604274;39;20047;-61
2021/07/17 01:15:23;;;;;;;36.72;10.77;;;;;;;15.68;100.00;102546.47;3599920;39;20448;-61
2021/07/17 01:17:50;;;;;;;37.35;9.98;;;;;;;15.58;100.00;102553.63;3601730;39;20055;-62
2021/07/17 01:20:18;;;;;;;34.83;11.82;;;;;;;15.56;100.00;102542.03;3601824;39;20320;-61
2021/07/17 01:22:47;;;;;;;31.35;10.18;;;;;;;15.57;100.00;102541.06;3604732;39;20089;-61
2021/07/17 01:25:16;;;;;;;32.83;9.65;;;;;;;15.62;100.00;102541.53;3599845;39;20035;-61
2021/07/17 01:27:42;;;;;;;;;;;;;;;15.54;100.00;102541.31;3604200;39;20312;-61
2021/07/17 01:30:11;;;;;;;30.85;10.77;;;;;;;15.54;100.00;102544.03;3601116;39;19972;-61
2021/07/17 01:32:38;;;;;;;39.13;11.02;;;;;;;15.48;100.00;102544.53;3591514;39;20035;-61
2021/07/17 01:35:05;;;;;;;30.73;10.60;;;;;;;15.39;100.00;102543.44;3603585;39;20047;-62
2021/07/17 01:37:32;;;;;;;37.17;10.85;;;;;;;15.42;100.00;102541.31;3597593;39;20030;-61
2021/07/17 01:40:03;;;;;;;31.95;10.50;;;;;;;15.39;100.00;102546.16;3601831;39;20319;-61
2021/07/17 01:42:30;;;;;;;34.15;10.75;;;;;;;15.36;100.00;102549.97;3601230;39;20141;-62
2021/07/17 01:44:57;;;;;;;33.72;10.77;;;;;;;15.23;100.00;102541.13;3604061;39;20056;-62
2021/07/17 01:47:23;;;;;;;28.92;9.40;;;;;;;15.23;100.00;102551.97;3601856;39;20050;-61
2021/07/17 01:49:50;;;;;;;29.15;8.77;;;;;;;15.25;100.00;102550.00;3603687;39;20036;-61
2021/07/17 01:52:16;;;;;;;29.23;10.48;;;;;;;15.11;100.00;102544.84;3603481;39;20027;-61
2021/07/17 01:54:43;;;;;;;24.65;9.80;;;;;;;15.01;100.00;102548.28;3604550;39;20092;-61
2021/07/17 01:57:10;;;;;;;26.85;9.18;;;;;;;14.91;100.00;102547.31;3601298;39;20034;-61
2021/07/17 01:59:38;;;;;;;33.45;10.27;;;;;;;14.81;100.00;102546.31;3600984;39;20063;-61
2021/07/17 02:02:06;;;;;;;28.85;9.85;;;;;;;14.81;100.00;102551.72;3602798;39;20054;-61
2021/07/17 02:04:32;;;;;;;31.25;9.35;;;;;;;14.75;100.00;102547.66;3600862;39;20287;-61
2021/07/17 02:06:59;;;;;;;36.58;11.63;;;;;;;14.98;100.00;102548.53;3601728;39;20031;-62
2021/07/17 02:09:25;;;;;;;33.10;11.32;;;;;;;14.95;100.00;102534.38;3607216;39;20056;-61
2021/07/17 02:11:52;;;;;;;39.80;12.02;;;;;;;14.94;100.00;102540.78;3606949;39;20030;-61
2021/07/17 02:14:19;;;;;;;36.95;12.35;;;;;;;14.85;100.00;102536.97;3605043;39;20036;-61
2021/07/17 02:16:46;;;;;;;37.35;12.25;;;;;;;14.92;100.00;102538.19;3600744;39;20050;-62
2021/07/17 02:19:18;;;;;;;36.75;12.10;;;;;;;14.88;100.00;102543.00;3603636;39;20043;-61
2021/07/17 02:21:47;;;;;;;32.65;12.55;;;;;;;14.84;100.00;102537.94;3607108;39;20035;-62
2021/07/17 02:24:14;;;;;;;;;;;;;;;14.81;100.00;102535.47;3604027;39;20039;-61
2021/07/17 02:26:40;;;;;;;30.00;11.00;;;;;;;14.83;100.00;102544.38;3602098;39;20207;-61
2021/07/17 02:29:07;;;;;;;37.03;13.05;;;;;;;14.82;100.00;102543.47;3606091;39;20028;-61
2021/07/17 02:31:36;;;;;;;27.27;11.85;;;;;;;14.87;100.00;102546.69;3602446;39;20043;-60
2021/07/17 02:34:02;;;;;;;36.72;11.63;;;;;;;14.81;100.00;102546.31;3604792;39;20035;-61
2021/07/17 02:36:29;;;;;;;36.75;11.27;;;;;;;14.85;100.00;102547.78;3599116;39;20043;-61
2021/07/17 02:38:55;;;;;;;34.88;11.27;;;;;;;14.84;100.00;102544.25;3601780;39;20034;-62
2021/07/17 02:41:22;;;;;;;34.58;12.40;;;;;;;14.85;100.00;102545.09;3603130;39;20039;-61
2021/07/17 02:43:49;;;;;;;30.05;11.13;;;;;;;14.86;100.00;102546.81;3603848;39;20035;-61
2021/07/17 02:46:16;;;;;;;31.60;10.30;;;;;;;14.80;100.00;102537.31;3601207;39;20383;-61
2021/07/17 02:48:44;;;;;;;34.55;10.57;;;;;;;14.77;100.00;102542.16;3603837;39;20335;-61
2021/07/17 02:51:11;;;;;;;34.55;10.57;;;;;;;14.73;100.00;102538.81;3604611;39;20026;-62
2021/07/17 02:53:37;;;;;;;25.33;9.85;;;;;;;14.63;100.00;102537.81;3605387;39;20028;-61
2021/07/17 02:56:04;;;;;;;26.95;10.02;;;;;;;14.68;100.00;102541.88;3602158;39;20396;-61
2021/07/17 02:58:31;;;;;;;28.45;10.10;;;;;;;14.64;100.00;102539.53;3601513;39;20024;-61
2021/07/17 03:00:57;;;;;;;28.63;10.35;;;;;;;14.59;100.00;102539.00;3604719;39;20056;-61
2021/07/17 03:03:25;;;;;;;33.88;11.00;;;;;;;14.63;100.00;102537.81;3602967;39;20305;-62
2021/07/17 03:05:53;;;;;;;35.00;10.45;;;;;;;14.61;100.00;102542.47;3601869;39;20040;-61
2021/07/17 03:08:22;;;;;;;26.75;10.27;;;;;;;14.69;100.00;102540.91;3604078;39;21867;-61
2021/07/17 03:10:49;;;;;;;32.85;10.07;;;;;;;14.73;100.00;102549.63;3604273;39;20034;-61
2021/07/17 03:13:15;;;;;;;26.67;10.35;;;;;;;14.65;100.00;102547.53;3602810;39;20035;-60
2021/07/17 03:15:42;;;;;;;26.58;10.43;;;;;;;14.63;100.00;102549.50;3605912;39;20116;-61
2021/07/17 03:18:09;;;;;;;26.92;9.45;;;;;;;14.72;100.00;102545.19;3603425;39;20294;-61
2021/07/17 03:20:36;;;;;;;29.98;10.10;;;;;;;14.65;100.00;102546.66;3604843;39;20040;-62
2021/07/17 03:23:05;;;;;;;25.77;9.52;;;;;;;14.56;100.00;102545.53;3604909;39;20043;-60
2021/07/17 03:25:31;;;;;;;30.35;10.00;;;;;;;14.44;100.00;102549.19;3600838;39;20028;-60
2021/07/17 03:27:58;;;;;;;29.00;10.52;;;;;;;14.41;100.00;102549.44;3600436;39;20040;-61
2021/07/17 03:30:25;;;;;;;29.75;9.73;;;;;;;14.36;100.00;102550.66;3602898;39;20040;-61
2021/07/17 03:32:51;;;;;;;20.33;8.95;;;;;;;14.30;100.00;102551.13;3602526;39;20042;-60
2021/07/17 03:35:18;;;;;;;23.25;9.15;;;;;;;14.22;100.00;102548.16;3600352;39;20032;-61
2021/07/17 03:37:44;;;;;;;21.80;8.48;;;;;;;14.27;100.00;102548.66;3600626;39;20064;-61
2021/07/17 03:40:13;;;;;;;21.85;9.60;;;;;;;14.20;100.00;102550.13;3602434;39;20422;-61
2021/07/17 03:42:40;;;;;;;20.50;8.93;;;;;;;14.20;100.00;102544.72;3603107;39;20374;-60
2021/07/17 03:45:07;;;;;;;27.17;11.00;;;;;;;14.28;100.00;102550.41;3599562;39;20391;-60
2021/07/17 03:47:34;;;;;;;25.23;8.95;;;;;;;14.31;100.00;102544.75;3600173;39;20043;-60
2021/07/17 03:50:00;;;;;;;23.65;8.55;;;;;;;14.28;100.00;102542.28;3602819;39;20054;-61
2021/07/17 03:52:27;;;;;;;22.65;10.50;;;;;;;14.30;100.00;102543.00;3602260;39;20052;-60
2021/07/17 03:54:53;;;;;;;28.45;9.75;;;;;;;14.34;100.00;102544.50;3604721;39;20364;-60
2021/07/17 03:57:21;;;;;;;25.42;10.27;;;;;;;14.28;100.00;102534.16;3601499;39;20377;-60
2021/07/17 03:59:47;;;;;;;25.48;10.65;;;;;;;14.30;100.00;102532.19;3602313;39;20069;-60
2021/07/17 04:02:14;;;;;;;21.90;9.48;;;;;;;14.35;100.00;102545.34;3601080;39;20052;-61
2021/07/17 04:04:41;;;;;;;27.80;10.88;;;;;;;14.51;100.00;102543.16;3601429;39;20443;-60
2021/07/17 04:07:09;;;;;;;29.83;10.73;;;;;;;14.65;100.00;102538.53;3603473;39;20040;-60
2021/07/17 04:09:35;;;;;;;28.30;10.43;;;;;;;14.62;100.00;102547.78;3605316;39;20032;-60
2021/07/17 04:12:02;;;;;;;24.08;9.32;;;;;;;14.66;100.00;102543.88;3597148;39;20267;-61
2021/07/17 04:14:29;;;;;;;24.58;9.45;;;;;;;14.71;100.00;102555.19;3599063;39;20064;-60
2021/07/17 04:16:56;;;;;;;21.15;9.02;;;;;;;14.73;100.00;102555.06;3601701;39;20317;-61
2021/07/17 04:19:22;;;;;;;21.08;8.60;;;;;;;14.78;100.00;102562.81;3603614;39;20032;-61
2021/07/17 04:21:49;;;;;;;24.23;10.05;;;;;;;14.93;100.00;102563.44;3604976;39;20038;-60
2021/07/17 04:24:15;;;;;;;30.27;10.73;;;;;;;14.97;100.00;102563.09;3601646;39;20360;-60
2021/07/17 04:26:42;;;;;;;25.23;10.15;;;;;;;15.07;100.00;102558.66;3602170;39;20039;-60
2021/07/17 04:29:08;;;;;;;29.27;10.40;;;;;;;15.17;100.00;102557.91;3605462;39;20038;-60
2021/07/17 04:31:36;;;;;;;26.00;9.07;;;;;;;15.26;100.00;102557.16;3598228;39;20030;-61
2021/07/17 04:34:02;;;;;;;23.77;8.55;;;;;;;15.30;100.00;102565.91;3601396;39;20036;-61
2021/07/17 04:36:31;;;;;;;28.13;9.90;;;;;;;15.31;100.00;102563.06;3602623;39;20372;-60
2021/07/17 04:38:58;;;;;;;27.00;9.38;;;;;;;15.37;100.00;102564.41;3601723;39;20028;-61
2021/07/17 04:41:24;;;;;;;28.67;9.77;;;;;;;15.50;100.00;102561.53;3600692;39;20053;-61
2021/07/17 04:43:51;;;;;;;31.92;9.65;;;;;;;15.51;100.00;102561.41;3600357;39;20369;-61
2021/07/17 04:46:17;;;;;;;25.92;8.10;;;;;;;15.51;100.00;102561.41;3602947;39;20357;-61
2021/07/17 04:48:45;;;;;;;28.38;9.27;;;;;;;15.52;100.00;102563.16;3599713;39;20372;-61
2021/07/17 04:51:11;;;;;;;24.45;9.02;;;;;;;15.54;100.00;102560.31;3604401;39;20386;-62
2021/07/17 04:53:38;;;;;;;17.80;7.90;;;;;;;15.55;100.00;102562.88;3598806;39;20037;-61
2021/07/17 04:56:04;;;;;;;19.70;7.85;;;;;;;15.64;100.00;102563.13;3599273;39;20033;-61
2021/07/17 04:58:31;;;;;;;18.35;7.63;;;;;;;15.82;100.00;102552.59;3605193;39;20050;-61
2021/07/17 05:00:57;;;;;;;28.67;8.48;;;;;;;15.91;100.00;102557.25;3601598;39;20084;-61
2021/07/17 05:03:24;;;;;;;26.48;7.15;;;;;;;16.07;100.00;102557.66;3601126;39;20046;-61
2021/07/17 05:05:52;;;;;;;19.33;6.82;;;;;;;16.19;100.00;102554.91;3604460;39;20032;-61
2021/07/17 05:08:18;;;;;;;22.33;6.93;;;;;;;16.25;100.00;102562.53;3602377;39;20038;-61
2021/07/17 05:10:44;;;;;;;19.52;6.90;;;;;;;16.43;100.00;102551.91;3601953;39;20039;-62
2021/07/17 05:13:12;;;;;;;22.25;6.90;;;;;;;16.48;100.00;102565.13;3601409;39;20036;-61
2021/07/17 05:15:38;;;;;;;21.88;7.43;;;;;;;16.49;100.00;102561.41;3606720;39;20370;-61
2021/07/17 05:18:06;;;;;;;18.77;6.72;;;;;;;16.61;100.00;102563.06;3601542;39;20042;-61
2021/07/17 05:20:32;;;;;;;24.50;6.85;;;;;;;16.61;100.00;102565.78;3604491;39;20038;-61
2021/07/17 05:23:00;;;;;;;17.40;6.10;;;;;;;16.68;100.00;102561.53;3602409;39;20036;-61
2021/07/17 05:25:28;;;;;;;18.40;7.32;;;;;;;16.77;100.00;102570.75;3601374;39;20039;-62
2021/07/17 05:27:55;;;;;;;25.27;6.93;;;;;;;16.90;100.00;102567.81;3596365;39;20028;-61
2021/07/17 05:30:21;;;;;;;22.65;6.47;;;;;;;16.97;100.00;102569.00;3601497;39;20044;-61
2021/07/17 05:32:48;;;;;;;20.52;6.30;;;;;;;17.07;100.00;102567.16;3601420;39;20041;-62
2021/07/17 05:35:15;;;;;;;23.85;6.78;;;;;;;17.02;100.00;102566.72;3600260;39;20028;-61
2021/07/17 05:37:41;;;;;;;18.48;6.32;;;;;;;17.06;100.00;102565.44;3604482;39;20040;-61
2021/07/17 05:40:10;;;;;;;26.65;7.30;;;;;;;17.13;100.00;102574.78;3606924;39;20031;-61
2021/07/17 05:42:37;;;;;;;19.73;7.03;;;;;;;17.16;100.00;102573.66;3603092;39;20036;-61
2021/07/17 05:45:04;;;;;;;22.52;7.22;;;;;;;17.12;100.00;102573.06;3607450;39;20038;-61
2021/07/17 05:47:31;;;;;;;22.60;6.22;;;;;;;17.15;100.00;102575.53;3602435;39;20058;-62
2021/07/17 05:49:57;;;;;;;17.95;6.75;;;;;;;17.11;100.00;102574.06;3600692;39;20361;-62
2021/07/17 05:52:23;;;;;;;20.25;6.18;;;;;;;17.19;100.00;102584.25;3606960;39;20363;-62
2021/07/17 05:54:50;;;;;;;14.40;5.65;;;;;;;17.40;100.00;102583.31;3607366;39;20039;-62
2021/07/17 05:57:18;;;;;;;21.58;6.40;;;;;;;17.36;100.00;102580.03;3605340;39;20051;-61
2021/07/17 05:59:44;;;;;;;15.85;5.95;;;;;;;17.31;100.00;102579.56;3600580;39;20374;-62
2021/07/17 06:02:11;;;;;;;18.65;6.85;;;;;;;17.39;100.00;102579.75;3606947;39;20042;-62
2021/07/17 06:04:37;;;;;;;17.50;6.78;;;;;;;17.28;100.00;102593.44;3604361;39;20462;-61
2021/07/17 06:07:04;;;;;;;18.85;6.55;;;;;;;17.40;100.00;102586.03;3603534;39;20044;-61
2021/07/17 06:09:30;;;;;;;18.58;5.80;;;;;;;17.43;100.00;102586.63;3598735;39;20021;-61
2021/07/17 06:11:57;;;;;;;15.82;5.10;;;;;;;17.56;100.00;102590.97;3602616;39;20028;-62
2021/07/17 06:14:24;;;;;;;18.30;5.65;;;;;;;17.63;100.00;102592.13;3604262;39;20040;-62
2021/07/17 06:16:51;;;;;;;15.63;5.25;;;;;;;17.64;100.00;102588.41;3605565;39;20034;-62
2021/07/17 06:19:17;;;;;;;16.75;5.25;;;;;;;17.72;100.00;102585.81;3605944;39;20032;-62
2021/07/17 06:21:44;;;;;;;17.08;5.03;;;;;;;17.98;100.00;102588.03;3602775;39;20040;-61
2021/07/17 06:24:11;;;;;;;21.85;5.95;;;;;;;18.26;100.00;102585.47;3598979;39;20074;-62
2021/07/17 06:26:37;;;;;;;18.23;5.25;;;;;;;18.27;100.00;102588.03;3602211;39;20036;-61
2021/07/17 06:29:04;;;;;;;13.13;4.57;;;;;;;18.40;100.00;102590.44;3602791;39;20052;-61
2021/07/17 06:31:33;;;;;;;16.75;4.35;;;;;;;18.36;100.00;102592.63;3603063;39;20044;-62
2021/07/17 06:33:59;;;;;;;11.05;4.10;;;;;;;18.45;100.00;102592.75;3600953;39;20021;-62
2021/07/17 06:36:26;;;;;;;13.73;4.00;;;;;;;18.60;100.00;102587.72;3602692;39;20133;-62
2021/07/17 06:38:52;;;;;;;15.23;4.70;;;;;;;18.73;100.00;102599.16;3607349;39;20285;-62
2021/07/17 06:41:18;;;;;;;11.88;4.40;;;;;;;18.90;100.00;102605.72;3605805;39;20043;-62
2021/07/17 06:43:45;;;;;;;12.95;4.10;;;;;;;18.90;100.00;102590.25;3607286;39;20056;-62
2021/07/17 06:46:11;;;;;;;9.52;3.90;;;;;;;19.04;100.00;102596.22;3605660;39;20048;-62
2021/07/17 06:48:39;;;;;;;12.52;3.83;;;;;;;19.07;100.00;102607.69;3601998;39;20052;-62
2021/07/17 06:51:08;;;;;;;14.13;3.85;;;;;;;19.04;100.00;102599.78;3604357;39;20034;-62
2021/07/17 06:53:35;;;;;;;16.40;3.95;;;;;;;19.05;100.00;102597.91;3606023;39;20042;-62
2021/07/17 06:56:01;;;;;;;14.30;4.60;;;;;;;19.29;100.00;102604.69;3605694;39;20032;-62
2021/07/17 06:58:28;;;;;;;11.65;3.90;;;;;;;19.07;100.00;102606.84;3604495;39;20054;-62
2021/07/17 07:00:54;;;;;;;11.02;3.70;;;;;;;19.08;100.00;102614.03;3605129;39;20031;-62
2021/07/17 07:03:21;;;;;;;10.18;3.60;;;;;;;19.29;100.00;102610.16;3601759;39;20416;-62
2021/07/17 07:05:49;;;;;;;10.85;3.65;;;;;;;19.31;100.00;102610.88;3600781;39;20394;-61
2021/07/17 07:08:15;;;;;;;10.30;3.25;;;;;;;19.55;100.00;102619.41;3605851;39;20038;-62
2021/07/17 07:10:42;;;;;;;11.82;3.90;;;;;;;19.61;100.00;102617.94;3603107;39;20369;-62
2021/07/17 07:13:10;;;;;;;9.80;3.30;;;;;;;19.59;100.00;102612.59;3603653;39;20400;-62
2021/07/17 07:15:37;;;;;;;10.13;3.40;;;;;;;19.66;100.00;102622.94;3605299;39;20063;-61
2021/07/17 07:18:04;;;;;;;10.35;3.70;;;;;;;19.74;100.00;102621.16;3603292;39;20024;-61
2021/07/17 07:20:30;;;;;;;12.75;4.05;;;;;;;19.86;100.00;102624.56;3604536;39;20396;-62
2021/07/17 07:22:58;;;;;;;10.63;3.78;;;;;;;19.92;100.00;102613.00;3605974;39;20030;-63
2021/07/17 07:25:25;;;;;;;9.82;3.13;;;;;;;19.80;100.00;102630.59;3602056;39;20043;-62
2021/07/17 07:27:51;;;;;;;8.68;3.60;;;;;;;20.18;100.00;102623.13;3604478;39;20044;-61
2021/07/17 07:30:18;;;;;;;9.88;3.25;;;;;;;20.35;100.00;102623.31;3602914;39;20047;-62
2021/07/17 07:32:46;;;;;;;10.27;3.50;;;;;;;20.22;100.00;102629.16;3604003;39;20027;-62
2021/07/17 07:35:13;;;;;;;8.73;2.90;;;;;;;20.27;100.00;102626.81;3603483;39;20064;-62
2021/07/17 07:37:40;;;;;;;8.98;3.60;;;;;;;20.37;100.00;102632.19;3605948;39;20293;-62
2021/07/17 07:40:09;;;;;;;12.30;3.55;;;;;;;20.48;100.00;102629.22;3604322;39;20047;-62
2021/07/17 07:42:35;;;;;;;12.48;3.20;;;;;;;20.60;100.00;102632.56;3605291;39;20024;-61
2021/07/17 07:45:02;;;;;;;9.27;3.55;;;;;;;20.58;100.00;102637.31;3606991;39;20056;-62
2021/07/17 07:47:28;;;;;;;11.02;3.38;;;;;;;20.65;100.00;102625.56;3605319;39;20374;-62
2021/07/17 07:49:56;;;;;;;11.55;3.38;;;;;;;20.90;100.00;102638.59;3604448;39;20047;-61
2021/07/17 07:52:23;;;;;;;11.25;3.13;;;;;;;21.09;100.00;102632.06;3602894;39;20409;-61
2021/07/17 07:54:50;;;;;;;8.25;2.63;;;;;;;21.10;100.00;102633.78;3602922;39;20028;-62
2021/07/17 07:57:18;;;;;;;8.80;2.90;;;;;;;21.21;100.00;102630.72;3602986;39;20042;-62
2021/07/17 07:59:44;;;;;;;8.43;3.20;;;;;;;21.21;100.00;102630.72;3604888;39;20054;-62
2021/07/17 08:02:11;;;;;;;10.45;2.80;;;;;;;20.93;100.00;102630.91;3601511;39;20054;-62
2021/07/17 08:04:38;;;;;;;11.73;3.17;;;;;;;21.08;100.00;102624.84;3605156;39;20056;-62
2021/07/17 08:07:04;;;;;;;9.98;3.30;;;;;;;21.08;100.00;102625.72;3603096;39;20038;-62
2021/07/17 08:09:31;;;;;;;11.77;2.95;;;;;;;21.15;100.00;102618.56;3599840;39;20036;-62
2021/07/17 08:11:58;;;;;;;8.57;2.67;;;;;;;21.31;100.00;102625.16;3600348;39;20036;-61
2021/07/17 08:14:26;;;;;;;10.98;3.00;;;;;;;21.37;100.00;102634.59;3602821;39;20063;-62
2021/07/17 08:16:52;;;;;;;7.43;2.50;;;;;;;21.42;100.00;102621.25;3603034;39;20374;-61
2021/07/17 08:19:19;;;;;;;8.55;3.17;;;;;;;21.42;100.00;102626.72;3606202;39;20038;-62
2021/07/17 08:21:46;;;;;;;9.73;3.40;;;;;;;21.22;100.00;102626.97;3604906;39;20044;-62
2021/07/17 08:24:12;;;;;;;10.70;2.88;;;;;;;21.37;100.00;102629.13;3604547;39;20406;-62
2021/07/17 08:26:40;;;;;;;8.98;3.22;;;;;;;21.47;100.00;102629.84;3602550;39;20028;-61
2021/07/17 08:29:07;;;;;;;9.20;3.08;;;;;;;21.39;100.00;102627.91;3600618;39;20107;-62
2021/07/17 08:31:35;;;;;;;8.65;2.88;;;;;;;21.59;100.00;102633.16;3603736;39;20048;-62
2021/07/17 08:34:01;;;;;;;8.45;2.72;;;;;;;21.90;100.00;102627.94;3600466;39;20043;-62
2021/07/17 08:36:28;;;;;;;9.80;2.47;;;;;;;21.98;100.00;102627.97;3602221;39;20322;-62
2021/07/17 08:38:54;;;;;;;7.43;2.50;;;;;;;21.78;100.00;102626.53;3602811;39;20040;-61
2021/07/17 08:41:26;;;;;;;7.07;2.40;;;;;;;22.10;100.00;102628.50;3601959;39;20030;-61
2021/07/17 08:43:55;;;;;;;7.53;2.38;;;;;;;21.88;100.00;102635.47;3602945;39;20289;-62
2021/07/17 08:46:22;;;;;;;11.93;2.88;;;;;;;22.12;100.00;102633.81;3605183;39;20033;-62
2021/07/17 08:48:52;;;;;;;8.57;2.35;;;;;;;22.14;100.00;102632.63;3605815;39;20374;-62
2021/07/17 08:51:19;;;;;;;5.38;1.92;;;;;;;22.15;100.00;102630.72;3603349;39;20028;-62
2021/07/17 08:53:46;;;;;;;7.18;2.10;;;;;;;22.26;100.00;102630.38;3605646;39;20115;-62
2021/07/17 08:56:13;;;;;;;5.43;2.13;;;;;;;22.20;100.00;102625.56;3604837;39;20036;-62
2021/07/17 08:58:40;;;;;;;6.45;2.10;;;;;;;22.33;100.00;102628.69;3598455;39;20048;-62
2021/07/17 09:01:06;;;;;;;5.60;2.28;;;;;;;22.61;100.00;102628.34;3601123;39;20371;-61
2021/07/17 09:03:32;;;;;;;4.57;2.17;;;;;;;22.54;100.00;102630.06;3600853;39;20051;-63
2021/07/17 09:06:00;;;;;;;7.28;2.00;;;;;;;22.50;100.00;102628.72;3601504;39;20038;-62
2021/07/17 09:08:27;;;;;;;6.88;2.25;;;;;;;22.58;100.00;102634.16;3584388;39;20048;-61
2021/07/17 09:10:55;;;;;;;7.38;2.33;;;;;;;22.85;100.00;102627.47;3586579;39;20025;-61
2021/07/17 09:13:22;;;;;;;7.40;2.53;;;;;;;23.01;100.00;102622.94;3593208;39;20036;-62
2021/07/17 09:15:58;;;;;;;7.40;2.30;;;;;;;22.79;100.00;102628.16;3589861;39;20034;-63
2021/07/17 09:18:27;;;;;;;7.80;2.10;;;;;;;22.69;100.00;102625.59;3585694;39;20044;-63
2021/07/17 09:20:55;;;;;;;;;;;;;;;22.73;100.00;102621.47;3586811;39;20032;-62
2021/07/17 09:23:26;;;;;;;4.65;2.20;;;;;;;22.66;100.00;102625.06;3585938;39;19939;-63
2021/07/17 09:25:52;;;;;;;6.50;2.20;;;;;;;23.02;100.00;102616.44;3589488;39;20046;-63
2021/07/17 09:28:21;;;;;;;6.47;2.38;;;;;;;23.41;100.00;102618.38;3588599;39;20052;-63
2021/07/17 09:30:49;;;;;;;5.47;2.15;;;;;;;23.53;100.00;102610.59;3585687;39;20039;-64
2021/07/17 09:33:16;;;;;;;5.35;2.40;;;;;;;23.25;100.00;102613.81;3584418;39;20054;-63
2021/07/17 09:35:46;;;;;;;6.03;2.33;;;;;;;22.98;100.00;102604.06;3588968;39;20035;-64
2021/07/17 09:38:14;;;;;;;5.70;2.10;;;;;;;23.36;100.00;102607.06;3587190;39;20072;-63
2021/07/17 09:40:49;;;;;;;7.40;2.10;;;;;;;23.41;100.00;102608.25;3593542;39;20176;-62
2021/07/17 09:43:34;;;;;;;10.07;2.40;;;;;;;23.68;100.00;102606.03;3591738;39;20122;-62
2021/07/17 09:46:14;;;;;;;7.93;2.00;;;;;;;23.83;100.00;102603.34;3595237;39;20040;-62
2021/07/17 09:48:46;;;;;;;7.45;2.22;;;;;;;24.17;100.00;102612.25;3590020;39;20410;-63
2021/07/17 09:51:18;;;;;;;7.45;2.53;;;;;;;23.90;100.00;102611.78;3585587;39;20043;-63
2021/07/17 09:53:46;;;;;;;5.57;2.75;;;;;;;24.29;100.00;102611.66;3585506;39;20032;-63
2021/07/17 09:56:16;;;;;;;10.23;2.92;;;;;;;24.23;100.00;102614.28;3586414;39;20040;-62
2021/07/17 09:58:43;;;;;;;5.95;2.65;;;;;;;24.42;100.00;102600.00;3585786;39;20035;-62
2021/07/17 10:01:25;;;;;;;5.88;2.40;;;;;;;23.70;100.00;102598.44;3586604;39;20051;-62
2021/07/17 10:03:54;;;;;;;8.20;2.55;;;;;;;23.82;100.00;102595.28;3589140;39;20028;-63
2021/07/17 10:06:43;;;;;;;8.23;2.38;;;;;;;24.29;100.00;102605.28;3591735;39;20432;-63
2021/07/17 10:09:28;;;;;;;8.10;2.50;;;;;;;24.22;100.00;102604.31;3590508;39;20024;-62
2021/07/17 10:12:00;;;;;;;7.63;2.53;;;;;;;24.00;100.00;102598.66;3592049;39;20043;-63
2021/07/17 10:14:28;;;;;;;8.77;2.65;;;;;;;24.39;100.00;102592.13;3595370;39;20055;-63
2021/07/17 10:16:58;;;;;;;4.35;2.28;;;;;;;24.35;100.00;102592.66;3595662;39;20322;-62
2021/07/17 10:19:25;;;;;;;5.47;2.00;;;;;;;24.54;100.00;102591.28;3594633;39;20054;-63
2021/07/17 10:21:53;;;;;;;4.65;2.20;;;;;;;24.08;100.00;102590.31;3591362;39;20040;-62
2021/07/17 10:24:20;;;;;;;8.23;2.40;;;;;;;24.32;100.00;102593.91;3596949;39;20051;-62
2021/07/17 10:26:48;;;;;;;5.47;2.55;;;;;;;24.52;100.00;102587.88;3587508;39;20040;-62
2021/07/17 10:29:17;;;;;;;7.38;2.28;;;;;;;24.73;100.00;102598.19;3592992;39;20056;-62
2021/07/17 10:31:44;;;;;;;;;;;;;;;24.90;100.00;102604.38;3594258;39;20225;-62
2021/07/17 10:34:11;;;;;;;6.53;2.40;;;;;;;24.93;100.00;102598.50;3592302;39;19947;-63
2021/07/17 10:36:42;;;;;;;7.43;2.70;;;;;;;24.66;100.00;102600.81;3591943;39;20584;-63
2021/07/17 10:39:10;;;;;;;6.40;2.45;;;;;;;24.89;100.00;102599.91;3593625;39;20372;-62
2021/07/17 10:41:40;;;;;;;5.68;2.63;;;;;;;24.55;100.00;102596.63;3591648;39;20386;-63
2021/07/17 10:44:07;;;;;;;6.80;2.30;;;;;;;24.96;100.00;102595.38;3589222;39;20349;-63
2021/07/17 10:46:37;;;;;;;7.80;2.17;;;;;;;24.49;100.00;102592.69;3591203;39;20051;-63
2021/07/17 10:49:05;;;;;;;5.43;2.42;;;;;;;24.52;100.00;102582.38;3594633;39;20044;-63
2021/07/17 10:51:34;;;;;;;6.28;2.20;;;;;;;24.77;100.00;102591.28;3593556;39;20055;-63
2021/07/17 10:54:03;;;;;;;6.20;2.17;;;;;;;24.93;100.00;102588.31;3599721;39;20032;-63
2021/07/17 10:56:40;;;;;;;;;;;;;;;25.23;100.00;102606.75;3592708;39;20059;-63
2021/07/17 10:59:10;;;;;;;4.28;2.10;;;;;;;24.74;100.00;102592.50;3592305;39;19944;-63
2021/07/17 11:02:03;;;;;;;5.85;2.40;;;;;;;25.41;100.00;102585.19;3593764;39;20055;-62
2021/07/17 11:04:40;;;;;;;3.67;1.98;;;;;;;25.01;100.00;102591.00;3593656;39;20137;-63
2021/07/17 11:07:43;;;;;;;6.07;2.55;;;;;;;25.04;100.00;102597.16;3590690;39;20116;-63
2021/07/17 11:10:21;;;;;;;7.85;2.83;;;;;;;25.43;100.00;102588.59;3590969;39;20394;-63
2021/07/17 11:12:54;;;;;;;8.80;2.53;;;;;;;25.60;100.00;102577.31;3596148;39;20431;-64
2021/07/17 11:15:49;;;;;;;5.38;2.38;;;;;;;25.32;100.00;102586.31;3591798;39;20035;-63